createdAt,value
2017-10-17T00:00:51.250Z,68.30
2017-10-17T00:03:19.420Z,68.50
2017-10-17T00:05:47.567Z,68.20
2017-10-17T00:08:15.738Z,68.40
2017-10-17T00:10:43.878Z,68.20
2017-10-17T00:13:12.051Z,68.00
2017-10-17T00:15:41.094Z,68.50
2017-10-17T00:18:09.229Z,68.00
2017-10-17T00:20:37.369Z,68.50
2017-10-17T00:23:05.552Z,68.40
2017-10-17T00:25:33.685Z,68.40
2017-10-17T00:28:01.952Z,68.40
2017-10-17T00:30:30.094Z,68.40
2017-10-17T00:32:58.272Z,68.50
2017-10-17T00:35:26.395Z,68.50
2017-10-17T00:37:54.545Z,68.50
2017-10-17T00:40:22.810Z,68.50
2017-10-17T00:42:50.941Z,68.50
2017-10-17T00:45:19.888Z,68.40
2017-10-17T00:47:48.032Z,68.40
2017-10-17T00:50:16.188Z,68.70
2017-10-17T00:52:44.329Z,68.70
2017-10-17T00:55:12.492Z,68.60
2017-10-17T00:57:40.640Z,68.70
2017-10-17T01:00:08.902Z,68.80
2017-10-17T01:02:37.065Z,69.00
2017-10-17T01:05:05.209Z,68.90
2017-10-17T01:07:33.351Z,68.90
2017-10-17T01:10:01.533Z,69.20
2017-10-17T01:12:29.669Z,69.30
2017-10-17T01:14:57.836Z,69.20
2017-10-17T01:17:25.994Z,69.40
2017-10-17T01:19:54.940Z,69.50
2017-10-17T01:22:23.075Z,69.50
2017-10-17T01:24:51.208Z,69.70
2017-10-17T01:27:19.476Z,69.50
2017-10-17T01:29:47.625Z,69.50
2017-10-17T01:32:15.792Z,69.60
2017-10-17T01:34:43.937Z,69.90
2017-10-17T01:37:12.110Z,69.80
2017-10-17T01:39:40.256Z,69.60
2017-10-17T01:42:08.536Z,69.80
2017-10-17T01:44:36.704Z,70.10
2017-10-17T01:47:04.866Z,70.00
2017-10-17T01:49:33.020Z,69.80
2017-10-17T01:52:01.166Z,69.80
2017-10-17T01:54:29.329Z,69.80
2017-10-17T01:56:57.469Z,69.80
2017-10-17T01:59:25.740Z,70.30
2017-10-17T02:01:53.889Z,70.60
2017-10-17T02:04:22.083Z,70.10
2017-10-17T02:06:50.224Z,70.00
2017-10-17T02:09:18.396Z,70.40
2017-10-17T02:11:46.556Z,70.60
2017-10-17T02:14:14.900Z,70.40
2017-10-17T02:16:43.801Z,70.00
2017-10-17T02:19:12.714Z,70.40
2017-10-17T02:21:40.878Z,70.30
2017-10-17T02:24:09.020Z,70.40
2017-10-17T02:26:37.184Z,70.50
2017-10-17T02:29:05.328Z,69.70
2017-10-17T02:31:33.597Z,70.30
2017-10-17T02:34:01.741Z,70.30
2017-10-17T02:36:29.915Z,70.00
2017-10-17T02:38:58.824Z,70.30
2017-10-17T02:41:26.988Z,70.20
2017-10-17T02:43:55.129Z,70.10
2017-10-17T02:46:23.321Z,70.70
2017-10-17T02:48:52.263Z,70.40
2017-10-17T02:51:20.449Z,70.50
2017-10-17T02:53:48.595Z,71.00
2017-10-17T02:56:16.765Z,70.60
2017-10-17T02:58:44.912Z,70.40
2017-10-17T03:01:13.089Z,70.30
2017-10-17T03:03:41.236Z,70.30
2017-10-17T03:06:09.377Z,70.30
2017-10-17T03:08:37.525Z,70.50
2017-10-17T03:11:05.668Z,70.30
2017-10-17T03:13:34.695Z,70.50
2017-10-17T03:16:02.835Z,70.50
2017-10-17T03:18:31.796Z,70.50
2017-10-17T03:20:59.941Z,70.30
2017-10-17T03:23:28.077Z,70.60
2017-10-17T03:25:57.009Z,70.60
2017-10-17T03:28:25.153Z,70.60
2017-10-17T03:30:53.326Z,70.70
2017-10-17T03:33:21.465Z,70.60
2017-10-17T03:35:49.746Z,70.60
2017-10-17T03:38:17.908Z,70.50
2017-10-17T03:40:46.044Z,70.60
2017-10-17T03:43:14.205Z,70.80
2017-10-17T03:45:42.347Z,70.80
2017-10-17T03:48:11.284Z,72.00
2017-10-17T03:50:39.437Z,71.30
2017-10-17T03:53:07.685Z,71.50
2017-10-17T03:55:36.607Z,71.50
2017-10-17T03:58:04.764Z,71.50
2017-10-17T04:00:33.666Z,71.50
2017-10-17T04:03:01.862Z,71.50
2017-10-17T04:05:30.018Z,71.50
2017-10-17T04:07:58.165Z,71.50
2017-10-17T04:10:27.199Z,71.20
2017-10-17T04:12:55.354Z,71.10
2017-10-17T04:15:24.294Z,71.20
2017-10-17T04:17:52.501Z,71.20
2017-10-17T04:20:21.404Z,71.20
2017-10-17T04:22:49.572Z,71.20
2017-10-17T04:25:17.734Z,71.30
2017-10-17T04:27:46.001Z,71.30
2017-10-17T04:30:14.152Z,71.40
2017-10-17T04:32:42.369Z,71.40
2017-10-17T04:35:11.269Z,71.40
2017-10-17T04:37:39.438Z,71.40
2017-10-17T04:40:08.357Z,71.20
2017-10-17T04:42:36.521Z,71.20
2017-10-17T04:45:04.669Z,71.40
2017-10-17T04:47:33.690Z,71.60
2017-10-17T04:50:01.840Z,71.50
2017-10-17T04:52:30.793Z,71.50
2017-10-17T04:54:58.933Z,71.40
2017-10-17T04:57:27.072Z,71.30
2017-10-17T04:59:56.051Z,71.10
2017-10-17T05:02:24.197Z,71.10
2017-10-17T05:04:52.369Z,71.20
2017-10-17T05:07:20.504Z,71.30
2017-10-17T05:09:48.649Z,71.30
2017-10-17T05:12:16.817Z,71.20
2017-10-17T05:14:44.965Z,71.30
2017-10-17T05:17:13.257Z,71.20
2017-10-17T05:19:41.400Z,71.00
2017-10-17T05:22:09.594Z,71.10
2017-10-17T05:24:37.741Z,71.20
2017-10-17T05:27:05.882Z,71.20
2017-10-17T05:29:34.811Z,71.00
2017-10-17T05:32:02.989Z,70.90
2017-10-17T05:34:31.142Z,70.90
2017-10-17T05:36:59.312Z,71.10
2017-10-17T05:39:27.460Z,71.40
2017-10-17T05:41:56.505Z,72.40
2017-10-17T05:44:24.676Z,72.40
2017-10-17T05:46:52.869Z,72.00
2017-10-17T05:49:21.020Z,71.60
2017-10-17T05:51:49.164Z,71.30
2017-10-17T05:54:17.332Z,71.20
2017-10-17T05:56:45.481Z,71.50
2017-10-17T05:59:13.756Z,71.40
2017-10-17T06:01:41.915Z,71.30
2017-10-17T06:04:10.092Z,71.30
2017-10-17T06:06:38.232Z,71.40
2017-10-17T06:09:06.377Z,71.70
2017-10-17T06:11:34.546Z,71.70
2017-10-17T06:14:19.486Z,72.10
2017-10-17T06:16:47.652Z,72.30
2017-10-17T06:19:15.809Z,72.50
2017-10-17T06:21:44.078Z,72.50
2017-10-17T06:24:12.233Z,72.80
2017-10-17T06:26:40.408Z,72.90
2017-10-17T06:29:08.554Z,72.80
2017-10-17T06:31:37.577Z,72.90
2017-10-17T06:34:05.731Z,73.10
2017-10-17T06:36:33.902Z,73.10
2017-10-17T06:39:02.061Z,73.30
2017-10-17T06:41:30.964Z,73.30
2017-10-17T06:43:59.134Z,73.30
2017-10-17T06:46:28.053Z,73.80
2017-10-17T06:48:56.324Z,73.80
2017-10-17T06:51:24.491Z,74.10
2017-10-17T06:53:52.678Z,75.10
2017-10-17T06:56:20.820Z,75.20
2017-10-17T06:58:49.740Z,75.20
2017-10-17T07:01:18.677Z,75.20
2017-10-17T07:03:46.847Z,75.20
2017-10-17T07:06:15.029Z,75.10
2017-10-17T07:08:43.173Z,74.80
2017-10-17T07:11:18.461Z,74.80
2017-10-17T07:13:46.693Z,75.30
2017-10-17T07:16:14.866Z,75.60
2017-10-17T07:18:43.037Z,75.70
2017-10-17T07:21:11.186Z,75.60
2017-10-17T07:23:39.364Z,75.60
2017-10-17T07:26:07.528Z,75.50
2017-10-17T07:28:35.802Z,75.60
2017-10-17T07:31:03.957Z,76.10
2017-10-17T07:33:32.116Z,75.50
2017-10-17T07:36:01.059Z,76.20
2017-10-17T07:38:29.205Z,75.50
2017-10-17T07:40:57.453Z,76.40
2017-10-17T07:43:25.600Z,75.50
2017-10-17T07:45:53.788Z,75.40
2017-10-17T07:48:21.929Z,75.10
2017-10-17T07:50:50.074Z,75.30
2017-10-17T07:53:18.240Z,75.90
2017-10-17T07:55:46.410Z,75.30
2017-10-17T07:58:15.441Z,75.30
2017-10-17T08:00:43.599Z,75.30
2017-10-17T08:03:11.816Z,75.00
2017-10-17T08:05:39.963Z,74.90
2017-10-17T08:08:08.108Z,74.80
2017-10-17T08:10:36.282Z,74.70
2017-10-17T08:13:04.429Z,74.60
2017-10-17T08:15:32.681Z,74.40
2017-10-17T08:18:00.822Z,74.30
2017-10-17T08:20:29.005Z,73.60
2017-10-17T08:22:57.143Z,73.90
2017-10-17T08:25:26.071Z,73.70
2017-10-17T08:27:54.205Z,73.80
2017-10-17T08:30:23.125Z,73.50
2017-10-17T08:32:51.292Z,73.50
2017-10-17T08:35:19.453Z,73.00
2017-10-17T08:37:48.479Z,72.50
2017-10-17T08:40:16.636Z,72.40
2017-10-17T08:42:44.803Z,70.60
2017-10-17T08:45:12.961Z,68.70
2017-10-17T08:47:41.110Z,67.20
2017-10-17T08:50:09.412Z,64.20
2017-10-17T08:52:37.585Z,61.40
2017-10-17T08:55:06.497Z,57.60
2017-10-17T08:57:34.753Z,57.60
2017-10-17T09:00:02.909Z,54.80
2017-10-17T09:02:31.860Z,51.90
2017-10-17T09:05:00.005Z,51.90
2017-10-17T09:07:28.153Z,51.90
2017-10-17T09:09:57.088Z,50.20
2017-10-17T09:12:25.361Z,50.20
2017-10-17T09:14:53.519Z,50.30
2017-10-17T09:17:21.705Z,50.20
2017-10-17T09:19:49.865Z,51.10
2017-10-17T09:22:18.020Z,50.60
2017-10-17T09:24:46.196Z,51.90
2017-10-17T09:27:14.383Z,51.50
2017-10-17T09:29:42.557Z,51.60
2017-10-17T09:32:10.705Z,53.00
2017-10-17T09:34:39.764Z,52.90
2017-10-17T09:37:07.917Z,52.90
2017-10-17T09:39:37.082Z,54.00
2017-10-17T09:42:08.587Z,55.90
2017-10-17T09:44:38.833Z,55.20
2017-10-17T09:47:09.065Z,55.90
2017-10-17T09:49:41.991Z,55.80
2017-10-17T09:52:10.314Z,56.80
2017-10-17T09:54:40.730Z,56.70
2017-10-17T09:57:14.626Z,57.10
2017-10-17T10:02:40.680Z,57.80
2017-10-17T10:05:08.851Z,57.70
2017-10-17T10:07:42.448Z,58.20
2017-10-17T10:10:10.614Z,57.20
2017-10-17T10:12:38.774Z,56.90
2017-10-17T10:15:07.047Z,56.90
2017-10-17T10:17:35.201Z,56.10
2017-10-17T10:20:03.380Z,56.50
2017-10-17T10:22:31.572Z,56.90
2017-10-17T10:24:59.733Z,55.40
2017-10-17T10:27:27.912Z,56.30
2017-10-17T10:29:56.045Z,55.40
2017-10-17T10:32:24.973Z,56.00
2017-10-17T10:34:53.889Z,55.70
2017-10-17T10:37:22.085Z,55.70
2017-10-17T10:39:50.244Z,54.70
2017-10-17T10:42:18.393Z,56.00
2017-10-17T10:44:46.581Z,56.40
2017-10-17T10:47:14.728Z,54.40
2017-10-17T10:49:43.022Z,53.90
2017-10-17T10:52:11.176Z,52.90
2017-10-17T10:54:39.350Z,55.50
2017-10-17T10:57:07.609Z,54.80
2017-10-17T10:59:35.765Z,53.40
2017-10-17T11:02:04.705Z,54.20
2017-10-17T11:04:32.863Z,54.20
2017-10-17T11:07:01.078Z,53.30
2017-10-17T11:09:29.221Z,52.40
2017-10-17T11:11:57.501Z,51.50
2017-10-17T11:14:26.420Z,51.80
2017-10-17T11:16:54.637Z,51.80
2017-10-17T11:19:22.790Z,50.00
2017-10-17T11:21:50.946Z,49.00
2017-10-17T11:24:19.150Z,48.40
2017-10-17T11:26:47.292Z,49.80
2017-10-17T11:29:15.467Z,51.40
2017-10-17T11:31:43.621Z,50.10
2017-10-17T11:34:11.788Z,51.20
2017-10-17T11:36:39.933Z,49.70
2017-10-17T11:39:08.081Z,51.20
2017-10-17T11:41:44.915Z,50.20
2017-10-17T11:44:13.186Z,50.10
2017-10-17T11:46:41.342Z,49.40
2017-10-17T11:49:09.484Z,50.00
2017-10-17T11:51:38.426Z,50.00
2017-10-17T11:54:06.580Z,49.90
2017-10-17T11:56:34.736Z,51.30
2017-10-17T11:59:02.889Z,48.80
2017-10-17T12:01:31.027Z,49.20
2017-10-17T12:03:59.217Z,48.90
2017-10-17T12:06:27.372Z,48.80
2017-10-17T12:08:55.536Z,49.10
2017-10-17T12:11:23.681Z,47.80
2017-10-17T12:13:51.921Z,48.40
2017-10-17T12:16:20.071Z,46.80
2017-10-17T12:18:48.390Z,47.90
2017-10-17T12:21:17.319Z,47.40
2017-10-17T12:23:45.482Z,47.30
2017-10-17T12:26:13.639Z,46.20
2017-10-17T12:28:42.541Z,46.50
2017-10-17T12:31:10.717Z,46.50
2017-10-17T12:33:38.866Z,45.90
2017-10-17T12:36:07.887Z,47.00
2017-10-17T12:38:36.030Z,46.40
2017-10-17T12:41:04.986Z,46.70
2017-10-17T12:43:33.125Z,46.60
2017-10-17T12:46:01.392Z,47.00
2017-10-17T12:48:29.543Z,46.80
2017-10-17T12:50:58.492Z,45.10
2017-10-17T12:53:26.641Z,45.10
2017-10-17T12:55:54.826Z,45.60
2017-10-17T12:58:22.965Z,45.90
2017-10-17T13:00:51.897Z,46.40
2017-10-17T13:03:20.013Z,46.40
2017-10-17T13:05:48.161Z,45.30
2017-10-17T13:08:16.442Z,45.50
2017-10-17T13:10:44.573Z,45.00
2017-10-17T13:13:12.739Z,44.70
2017-10-17T13:15:40.875Z,43.40
2017-10-17T13:18:09.004Z,43.20
2017-10-17T13:20:37.173Z,45.10
2017-10-17T13:23:05.309Z,42.70
2017-10-17T13:25:34.363Z,43.50
2017-10-17T13:28:02.502Z,43.50
2017-10-17T13:30:30.680Z,43.20
2017-10-17T13:32:58.821Z,44.00
2017-10-17T13:35:27.725Z,42.10
2017-10-17T13:37:55.909Z,42.00
2017-10-17T13:40:24.062Z,42.10
2017-10-17T13:42:53.097Z,44.00
2017-10-17T13:45:21.251Z,43.90
2017-10-17T13:47:49.399Z,44.50
2017-10-17T13:50:18.322Z,43.10
2017-10-17T13:52:46.504Z,42.90
2017-10-17T13:55:14.640Z,43.50
2017-10-17T13:57:42.822Z,44.30
2017-10-17T14:00:11.737Z,42.50
2017-10-17T14:02:39.895Z,42.50
2017-10-17T14:05:08.063Z,42.70
2017-10-17T14:07:36.966Z,41.30
2017-10-17T14:10:05.243Z,41.30
2017-10-17T14:12:33.384Z,42.10
2017-10-17T14:15:01.561Z,42.00
2017-10-17T14:17:30.484Z,42.30
2017-10-17T14:19:58.653Z,42.30
2017-10-17T14:22:26.812Z,42.00
2017-10-17T14:24:55.736Z,41.50
2017-10-17T14:27:23.922Z,41.50
2017-10-17T14:29:52.061Z,40.50
2017-10-17T14:32:20.361Z,41.10
2017-10-17T14:34:48.525Z,40.20
2017-10-17T14:37:16.689Z,41.40
2017-10-17T14:39:44.854Z,40.80
2017-10-17T14:42:13.898Z,42.50
2017-10-17T14:44:42.093Z,42.50
2017-10-17T14:47:10.245Z,42.50
2017-10-17T14:49:38.425Z,43.00
2017-10-17T14:52:06.572Z,41.80
2017-10-17T14:54:34.710Z,42.60
2017-10-17T14:57:03.653Z,42.70
2017-10-17T14:59:31.809Z,42.70
2017-10-17T15:02:00.070Z,42.70
2017-10-17T15:04:28.228Z,43.30
2017-10-17T15:06:56.368Z,42.80
2017-10-17T15:09:24.529Z,43.50
2017-10-17T15:11:52.669Z,43.30
2017-10-17T15:14:20.844Z,44.50
2017-10-17T15:16:48.995Z,45.30
2017-10-17T15:19:17.881Z,46.50
2017-10-17T15:21:46.141Z,45.80
2017-10-17T15:24:14.316Z,46.20
2017-10-17T15:26:42.510Z,46.20
2017-10-17T15:29:11.416Z,46.70
2017-10-17T15:31:39.677Z,46.70
2017-10-17T15:34:08.570Z,46.80
2017-10-17T15:36:36.781Z,46.70
2017-10-17T15:39:04.928Z,47.00
2017-10-17T15:41:33.102Z,47.40
2017-10-17T15:44:01.253Z,47.60
2017-10-17T15:46:30.159Z,48.00
2017-10-17T15:48:59.193Z,48.00
2017-10-17T15:51:27.350Z,48.00
2017-10-17T15:53:55.486Z,48.00
2017-10-17T15:56:24.405Z,48.50
2017-10-17T15:58:52.544Z,48.50
2017-10-17T16:01:20.731Z,49.10
2017-10-17T16:03:49.642Z,49.50
2017-10-17T16:06:17.914Z,49.50
2017-10-17T16:08:46.067Z,49.80
2017-10-17T16:11:14.358Z,50.30
2017-10-17T16:13:42.524Z,50.30
2017-10-17T16:16:10.692Z,50.70
2017-10-17T16:18:39.592Z,51.40
2017-10-17T16:21:07.759Z,51.40
2017-10-17T16:23:35.913Z,51.60
2017-10-17T16:26:04.091Z,51.50
2017-10-17T16:28:33.138Z,52.10
2017-10-17T16:31:01.288Z,52.10
2017-10-17T16:33:29.464Z,52.30
2017-10-17T16:35:58.381Z,52.60
2017-10-17T16:38:26.545Z,52.50
2017-10-17T16:40:54.713Z,53.00
2017-10-17T16:43:22.854Z,53.20
2017-10-17T16:45:51.932Z,53.50
2017-10-17T16:48:20.078Z,53.50
2017-10-17T16:50:48.258Z,53.80
2017-10-17T16:53:16.412Z,54.10
2017-10-17T16:55:44.681Z,54.40
2017-10-17T16:58:12.859Z,54.60
2017-10-17T17:00:41.969Z,54.90
2017-10-17T17:03:10.174Z,55.00
2017-10-17T17:05:38.320Z,55.40
2017-10-17T17:08:06.473Z,55.70
2017-10-17T17:10:34.640Z,56.30
2017-10-17T17:13:02.820Z,56.60
2017-10-17T17:15:30.990Z,56.70
2017-10-17T17:17:59.177Z,56.90
2017-10-17T17:20:27.329Z,57.20
2017-10-17T17:22:55.653Z,57.10
2017-10-17T17:25:23.800Z,57.00
2017-10-17T17:27:51.950Z,57.20
2017-10-17T17:30:20.126Z,57.20
2017-10-17T17:32:48.277Z,57.80
2017-10-17T17:35:17.222Z,57.80
2017-10-17T17:37:45.375Z,57.80
2017-10-17T17:40:13.653Z,57.80
2017-10-17T17:42:42.572Z,58.30
2017-10-17T17:45:10.720Z,58.20
2017-10-17T17:47:38.932Z,58.20
2017-10-17T17:50:07.062Z,58.60
2017-10-17T17:52:36.007Z,58.80
2017-10-17T17:55:04.169Z,58.80
2017-10-17T17:57:32.385Z,59.00
2017-10-17T18:00:01.316Z,59.10
2017-10-17T18:02:29.514Z,59.10
2017-10-17T18:04:57.780Z,59.60
2017-10-17T18:07:25.938Z,59.50
2017-10-17T18:09:54.103Z,59.50
2017-10-17T18:12:30.932Z,59.80
2017-10-17T18:14:59.106Z,59.80
2017-10-17T18:17:28.074Z,60.00
2017-10-17T18:19:56.227Z,60.10
2017-10-17T18:22:24.398Z,60.20
2017-10-17T18:24:52.528Z,60.40
2017-10-17T18:27:20.683Z,60.80
2017-10-17T18:29:48.859Z,60.90
2017-10-17T18:52:30.730Z,63.40
2017-10-17T18:54:58.927Z,62.70
2017-10-17T18:57:27.065Z,62.70
2017-10-17T18:59:55.214Z,62.90
2017-10-17T19:02:24.145Z,63.80
2017-10-17T19:04:52.317Z,63.70
2017-10-17T19:07:20.520Z,63.70
2017-10-17T19:09:48.666Z,63.60
2017-10-17T19:12:17.598Z,63.90
2017-10-17T19:14:45.833Z,63.90
2017-10-17T19:17:14.236Z,63.80
2017-10-17T19:19:42.429Z,63.80
2017-10-17T19:22:10.596Z,63.90
2017-10-17T19:24:38.877Z,63.60
2017-10-17T19:27:07.035Z,63.90
2017-10-17T19:29:35.234Z,64.10
2017-10-17T19:32:03.384Z,64.10
2017-10-17T19:34:31.601Z,64.20
2017-10-17T19:37:00.523Z,64.20
2017-10-17T19:39:28.673Z,64.10
2017-10-17T19:41:56.956Z,64.20
2017-10-17T19:44:25.106Z,64.40
2017-10-17T19:46:54.044Z,64.30
2017-10-17T19:49:22.188Z,64.30
2017-10-17T19:51:50.357Z,64.40
2017-10-17T19:54:18.525Z,64.40
2017-10-17T19:56:47.590Z,64.40
2017-10-17T19:59:15.746Z,64.30
2017-10-17T20:01:43.914Z,64.50
2017-10-17T20:04:12.076Z,64.50
2017-10-17T20:06:40.261Z,64.50
2017-10-17T20:09:08.436Z,64.50
2017-10-17T20:11:36.713Z,64.70
2017-10-17T20:14:04.878Z,64.60
2017-10-17T20:16:35.312Z,65.10
2017-10-17T20:19:04.373Z,65.50
2017-10-17T20:21:32.533Z,65.70
2017-10-17T20:24:03.178Z,65.80
2017-10-17T20:26:38.960Z,65.70
2017-10-17T20:29:16.561Z,66.20
2017-10-17T20:31:53.995Z,66.00
2017-10-17T20:34:26.280Z,66.20
2017-10-17T20:37:03.425Z,66.00
2017-10-17T20:39:34.673Z,66.00
2017-10-17T20:42:06.495Z,65.90
2017-10-17T20:44:34.642Z,66.10
2017-10-17T20:47:04.770Z,66.40
2017-10-17T20:49:33.700Z,66.70
2017-10-17T20:52:03.186Z,66.70
2017-10-17T20:54:32.778Z,66.50
2017-10-17T20:57:03.345Z,66.30
2017-10-17T20:59:33.412Z,66.60
2017-10-17T21:02:14.990Z,66.70
2017-10-17T21:04:43.333Z,66.70
2017-10-17T21:07:22.417Z,66.50
2017-10-17T21:09:54.493Z,66.70
2017-10-17T21:12:22.645Z,66.60
2017-10-17T21:15:08.865Z,66.50
2017-10-17T21:17:38.434Z,66.50
2017-10-17T21:20:08.025Z,66.60
2017-10-17T21:22:36.161Z,66.60
2017-10-17T21:25:04.491Z,66.80
2017-10-17T21:27:33.406Z,67.00
2017-10-17T21:30:01.576Z,66.90
2017-10-17T21:32:29.720Z,67.00
2017-10-17T21:34:58.645Z,66.90
2017-10-17T21:37:26.816Z,66.90
2017-10-17T21:39:54.968Z,66.90
2017-10-17T21:42:31.231Z,66.90
2017-10-17T21:45:00.255Z,66.90
2017-10-17T21:47:28.424Z,66.90
2017-10-17T21:49:56.580Z,67.10
2017-10-17T21:52:24.829Z,67.30
2017-10-17T21:54:52.983Z,67.30
2017-10-17T21:57:28.513Z,67.30
2017-10-17T21:59:56.776Z,67.40
2017-10-17T22:02:24.921Z,67.60
2017-10-17T22:04:53.857Z,67.80
2017-10-17T22:07:22.036Z,67.70
2017-10-17T22:09:50.292Z,68.10
2017-10-17T22:12:18.431Z,68.30
2017-10-17T22:14:47.413Z,68.00
2017-10-17T22:17:15.556Z,68.00
2017-10-17T22:19:43.704Z,67.90
2017-10-17T22:22:11.877Z,67.80
2017-10-17T22:24:40.026Z,67.90
2017-10-17T22:27:09.053Z,68.00
2017-10-17T22:29:37.193Z,68.00
2017-10-17T22:32:05.371Z,68.10
2017-10-17T22:34:33.510Z,68.20
2017-10-17T22:37:01.656Z,68.20
2017-10-17T22:39:29.832Z,68.50
2017-10-17T22:41:57.976Z,68.70
2017-10-17T22:44:26.256Z,68.90
2017-10-17T22:46:54.420Z,68.70
2017-10-17T22:49:22.604Z,68.50
2017-10-17T22:51:50.752Z,68.50
2017-10-17T22:54:18.917Z,68.50
2017-10-17T22:56:47.093Z,68.40
2017-10-17T22:59:16.004Z,68.20
2017-10-17T23:01:44.165Z,68.10
2017-10-17T23:04:12.429Z,68.00
2017-10-17T23:06:41.336Z,68.40
2017-10-17T23:09:09.499Z,68.40
2017-10-17T23:11:38.413Z,68.40
2017-10-17T23:14:06.583Z,68.40
2017-10-17T23:16:34.718Z,68.30
2017-10-17T23:19:02.981Z,68.20
2017-10-17T23:21:31.146Z,68.40
2017-10-17T23:23:59.292Z,68.50
2017-10-17T23:26:27.460Z,69.30
2017-10-17T23:28:55.637Z,68.50
2017-10-17T23:31:23.774Z,68.70
2017-10-17T23:33:51.932Z,68.60
2017-10-17T23:36:20.206Z,68.70
2017-10-17T23:38:48.349Z,68.60
2017-10-17T23:41:16.505Z,68.70
2017-10-17T23:43:44.683Z,68.60
2017-10-17T23:46:12.833Z,68.70
2017-10-17T23:48:41.020Z,68.90
2017-10-17T23:51:09.151Z,68.80
2017-10-17T23:53:37.414Z,68.90
2017-10-17T23:56:05.568Z,68.90
2017-10-17T23:58:33.757Z,68.90
